This is the latest recevied weather packets stored in our database for station/object KD5UMO-1. If no packets are shown the sender has not sent any weather packets the latest 10 day(s).
| Time | Temp. | Humidity | Pressure | Rain* | Wind** | Luminosity | Snow |
|---|---|---|---|---|---|---|---|
| 1778022427 | 29.44° C | 52% | 1004.4 hPa | 0 mm | - | 125 W/m² | - |
| 1778022123 | 29.44° C | 52% | 1004.2 hPa | 0 mm | - | 149 W/m² | - |
| 1778021819 | 30° C | 50% | 1004.2 hPa | 0 mm | - | 169 W/m² | - |
| 1778021516 | 30° C | 49% | 1004 hPa | 0 mm | - | 306 W/m² | - |
| 1778021211 | 30.56° C | 49% | 1004.1 hPa | 0 mm | - | 217 W/m² | - |
| 1778020910 | 31.67° C | 47% | 1004.1 hPa | 0 mm | - | 201 W/m² | - |
| 1778020607 | 32.78° C | 49% | 1004 hPa | 0 mm | - | 368 W/m² | - |
| 1778020303 | 32.22° C | 50% | 1003.6 hPa | 0 mm | - | 388 W/m² | - |
| 1778019999 | 32.78° C | 50% | 1003.5 hPa | 0 mm | - | 215 W/m² | - |
| 1778019695 | 32.78° C | 50% | 1003.6 hPa | 0 mm | - | 212 W/m² | - |
| 1778019392 | 33.33° C | 51% | 1003.7 hPa | 0 mm | - | 241 W/m² | - |
| 1778019089 | 32.78° C | 53% | 1003.7 hPa | 0 mm | - | 597 W/m² | - |
| 1778018786 | 32.78° C | 52% | 1003.5 hPa | 0 mm | - | 567 W/m² | - |
| 1778018483 | 31.67° C | 53% | 1003.7 hPa | 0 mm | - | 279 W/m² | - |
| 1778018181 | 32.22° C | 53% | 1003.9 hPa | 0 mm | - | 166 W/m² | - |
| 1778017879 | 32.22° C | 53% | 1003.8 hPa | 0 mm | - | 238 W/m² | - |
| 1778017577 | 32.78° C | 51% | 1003.8 hPa | 0 mm | - | 298 W/m² | - |
| 1778017274 | 32.22° C | 53% | 1003.8 hPa | 0 mm | - | 655 W/m² | - |
| 1778016971 | 31.67° C | 54% | 1003.9 hPa | 0 mm | - | 280 W/m² | - |
| 1778016668 | 32.22° C | 51% | 1004.1 hPa | 0 mm | - | 222 W/m² | - |
| 1778016364 | 32.22° C | 53% | 1004.2 hPa | 0 mm | - | 213 W/m² | - |
| 1778016062 | 32.78° C | 52% | 1004.1 hPa | 0 mm | - | 505 W/m² | - |
| 1778015753 | 31.67° C | 54% | 1004.4 hPa | 0 mm | - | 748 W/m² | - |
| 1778015450 | 32.78° C | 52% | 1004.1 hPa | 0 mm | - | 731 W/m² | - |
| 1778015146 | 32.78° C | 51% | 1004.3 hPa | 0 mm | - | 274 W/m² | - |
* Rain latest hour (hover to see other rain measurements)
** Current wind speed in m/s (hover to see current wind gust speed)